Airfield :







YOU CAN JOIN US ON...

 
LOGIN :

Register | Disclaimer

   EN    FR    IT 

 









Legend :    VFR   Marginal VFR   IFR   Intensive IFR   Very Intensive IFR
Visi :
Ceiling :
>= 8 km
>= 3000ft
5 to 8 km
1000 to 3000 ft
1500m to 5 km
500 to 1000 ft
800 to 1500m
200 to 500 ft
< 800m
< 200 ft
Symbols :   Thunderstorms  Fog  Heavy snow  Heavy precipitations  Wind > 20 kt






- Airport Elevation : 148 ft


KLWM - Lawrence Municipal

CURRENT METAR :
  • 220954Z AUTO 21005KT 10SM CLR 23/21 A2962 RMK AO2 SLP028 T02280206

EXPIRED METARs :
  • 220854Z AUTO 22005KT 10SM CLR 23/20 A2961 RMK AO2 SLP026 T02280200 51009
  • 220754Z AUTO 22008KT 10SM CLR 23/20 A2961 RMK AO2 SLP024 T02280200

TAF N/A
KZBW FIR / North America



MET'MAP, your aeronautical weather chart ! - Copyright ORBIFLY December 2007 - Disclaimer

ORBIFLY MET'MAP TEAM :

Programming & Development : Alexandra Zaïnal
Concept & original design : Baudouin d'Aumeries
Assistance for programming : Marc-Olivier Méhu
Technical & hardware support : Manuel Goepfert

Contact : metmap@orbifly.com




SOURCES & CREDITS :

   NOAA